Ely, Nevada Weather observations

Data are for observation ending at time listed.
 Day   Time    Ave.   Ave.  Ave.  Vector   Max.   Stn.    Total    Solar   Ave.  
  of    of     Air    Rel.  Wind   Wind    Wind   Baro.  Precip.   Rad.    Soil  
Year   Day     Temp.  Hum.  Speed  Dir.    Gust   Pres.                    Temp. 
2015   (PST)    F      %     mph   deg.    mph     mb.     in.     W/m2     F   
------------------------------------------------------------------------------
 107    7:10   40.5    39    0.6    16      3.7   812.5    0.00     446    38.1
 107    7:20   39.5    41    1.9   331      4.9   812.5    0.00     486    38.2
 107    7:30   38.8    42    3.6   316      5.5   812.5    0.00     526    38.5
 107    7:40   40.3    40    4.0   343      7.5   812.6    0.00     565    39.3
 107    7:50   41.1    40    6.2   335      9.9   812.5    0.00     604    40.4
 107    8:00   41.8    40    7.0   324     10.7   812.4    0.00     641    41.6
 107    8:10   42.8    39    9.6   336     14.2   812.4    0.00     678    42.7
 107    8:20   43.2    38    5.6   328     11.0   812.3    0.00     714    43.8
 107    8:30   44.1    37    7.8   318     12.8   812.3    0.00     749    45.0
 107    8:40   45.6    35   10.8   329     15.8   812.2    0.00     783    45.9
 107    8:50   47.4    33   14.7   335     21.3   812.1    0.00     812    46.8
 107    9:00   47.8    33   14.9   334     21.0   812.1    0.00     841    47.4
 107    9:10   48.3    32   15.8   333     20.9   812.1    0.00     870    48.3
 107    9:20   48.7    32   14.3   331     21.9   812.0    0.00     897    49.3
 107    9:30   50.0    30   13.8   332     21.2   811.9    0.00     920    50.5
 107    9:40   50.8    29   15.3   336     24.0   811.9    0.00     941    51.9
 107    9:50   51.6    28   15.1   335     21.9   811.7    0.00     962    53.2
 107   10:00   52.5    28   16.8   335     25.7   811.7    0.00     978    54.5
 107   10:10   52.5    27   17.2   330     24.7   811.8    0.00     996    55.7
 107   10:20   53.2    26   18.4   332     26.7   811.7    0.00    1010    57.0
 107   10:30   53.5    26   17.5   327     27.4   811.6    0.00    1024    57.9
 107   10:40   54.0    25   17.1   334     25.5   811.6    0.00    1037    58.7
 107   10:50   54.3    25   16.0   332     29.2   811.5    0.00    1045    59.6
 107   11:00   54.8    24   16.1   334     25.0   811.5    0.00    1050    60.5
 107   11:10   54.9    24   15.5   329     23.1   811.3    0.00    1061    61.2
 107   11:20   55.8    23   14.7   336     29.1   811.0    0.00    1062    62.1
 107   11:30   56.1    22   16.5   339     30.0   810.9    0.00    1064    62.7
 107   11:40   56.8    22   17.6   326     25.8   810.7    0.00    1064    63.1
 107   11:50   57.4    21   19.9   326     29.3   810.5    0.00    1063    63.6
 107   12:00   58.0    20   17.5   317     25.5   810.4    0.00    1061    64.1
 107   12:10   57.8    20   16.5   318     28.1   810.3    0.00    1052    64.5
 107   12:20   57.7    20   16.3   313     29.3   810.2    0.00    1049    64.7
 107   12:30   58.4    20   15.2   322     22.5   810.1    0.00    1038    64.3
 107   12:40   58.5    19   16.0   318     25.4   810.0    0.00    1029    63.5
 107   12:50   58.9    19   14.6   326     24.8   809.9    0.00    1018    63.1
 107   13:00   59.6    17   17.4   324     26.8   809.8    0.00    1003    63.6
 107   13:10   59.5    17   15.0   314     23.8   809.7    0.00     989    64.2
 107   13:20   59.9    17   16.4   316     26.0   809.6    0.00     971    64.6
 107   13:30   59.7    16   14.8   314     26.4   809.5    0.00     951    64.8
 107   13:40   60.9    16   16.2   323     24.8   809.4    0.00     932    65.0
 107   13:50   61.2    16   17.9   317     28.2   809.2    0.00     909    65.1
 107   14:00   60.4    16   12.3   310     23.3   809.2    0.00     884    65.0
 107   14:10   60.8    16   16.5   324     27.2   809.1    0.00     860    65.1
 107   14:20   61.5    16   16.3   320     27.5   809.0    0.00     835    65.1
 107   14:30   61.3    16   14.9   316     22.4   808.9    0.00     806    65.1
 107   14:40   61.6    16   16.0   331     25.9   808.8    0.00     777    65.1
 107   14:50   61.5    16   15.0   338     23.1   808.7    0.00     745    64.8
 107   15:00   61.7    15   15.0   325     27.0   808.7    0.00     714    64.5
 107   15:10   61.6    15   14.8   330     26.5   808.7    0.00     681    64.3
 107   15:20   61.8    15   16.6   328     25.6   808.6    0.00     647    64.0
 107   15:30   62.2    14   17.9   324     27.1   808.6    0.00     612    63.8
 107   15:40   62.3    14   16.6   329     25.8   808.5    0.00     577    63.5
 107   15:50   62.5    14   17.8   327     27.0   808.5    0.00     540    63.1
 107   16:00   62.1    13   20.1   324     28.9   808.5    0.00     502    62.7
 107   16:10   62.1    14   18.6   323     33.8   808.4    0.00     462    62.3
 107   16:20   62.0    14   18.4   334     25.7   808.4    0.00     423    61.8
 107   16:30   61.9    14   19.8   320     26.2   808.4    0.00     383    61.3
 107   16:40   61.7    14   19.3   321     25.4   808.5    0.00     342    60.9
 107   16:50   61.6    14   17.0   328     23.2   808.6    0.00     303    60.7
 107   17:00   61.5    14   15.4   338     21.3   808.5    0.00     265    60.5
 107   17:10   61.4    14   14.8   333     21.9   808.5    0.00     227    60.1
 107   17:20   61.2    14   16.4   328     24.7   808.5    0.00     189    59.8
 107   17:30   60.9    14   16.2   330     21.3   808.5    0.00     155    59.4
 107   17:40   60.5    14   15.0   339     22.4   808.5    0.00     118    59.0
 107   17:50   60.1    14   13.9   333     20.3   808.5    0.00      78    58.7
 107   18:00   59.1    14   13.6   330     17.5   808.5    0.00      39    58.2
 107   18:10   57.7    15   11.6   319     18.9   808.6    0.00      16    57.7
 107   18:20   56.0    16   11.6   318     14.5   808.6    0.00       7    57.1
 107   18:30   54.8    17   10.4   318     13.1   808.7    0.00       7    56.4
 107   18:40   53.9    18   10.8   321     12.4   808.8    0.00       3    55.7
 107   18:50   53.6    18   11.1   326     13.7   809.0    0.00       1    55.1
 107   19:00   52.3    20    8.7   319     11.7   809.1    0.00       0    54.5
 107   19:10   50.6    21    5.0     2      7.8   809.3    0.00       0    53.9
 107   19:20   50.5    22    8.1     7     11.5   809.5    0.00       1    53.4
 107   19:30   50.7    22    7.5   356     11.8   809.5    0.00       1    53.0
 107   19:40   50.1    22    4.7   354      9.0   809.7    0.00       1    52.6
 107   19:50   49.7    22    5.1   345      8.2   809.8    0.00       0    52.2
 107   20:00   48.6    23    3.7   316      5.6   810.0    0.00       1    51.8
 107   20:10   48.5    23    5.4   270      8.9   810.1    0.00       1    51.2
 107   20:20   49.2    23    5.6   275      6.9   810.2    0.00       1    50.8
 107   20:30   48.1    23    6.3   255      8.7   810.2    0.00       1    50.3
 107   20:40   47.6    23    7.1   243      8.8   810.3    0.00       1    49.9
 107   20:50   47.2    24    7.5   241      9.1   810.3    0.00       1    49.6
 107   21:00   46.4    24    6.8   241      8.9   810.3    0.00       1    49.2
 107   21:10   46.1    24    7.1   245      9.0   810.4    0.00       1    48.9
 107   21:20   45.9    25    6.5   250      8.0   810.4    0.00       1    48.5
 107   21:30   45.8    25    3.6   252      6.9   810.5    0.00       0    48.2
 107   21:40   45.4    25    0.9   258      5.0   810.5    0.00       1    47.9
 107   21:50   44.2    26    1.1    82      2.8   810.5    0.00       1    47.6
 107   22:00   42.8    27    2.1    66      5.0   810.6    0.00       0    47.4
 107   22:10   41.9    28    0.5   137      2.7   810.7    0.00       0    47.1
 107   22:20   38.6    29    3.2   132      6.0   810.8    0.00       0    46.8
 107   22:30   35.4    31    5.5   133      7.8   810.8    0.00       0    46.5
 107   22:40   36.3    32    6.0   135      7.4   810.9    0.00       0    46.1
 107   22:50   36.7    32    3.2   102      5.6   810.9    0.00       1    45.8
 107   23:00   36.9    32    3.3   148      5.0   811.1    0.00       0    45.5
 107   23:10   37.0    32    3.7   138      6.7   811.1    0.00       0    45.2
 107   23:20   34.5    37    5.8   171     10.1   811.1    0.00       1    44.9
 107   23:30   32.4    41    9.9   152     12.6   811.1    0.00       1    44.6
 107   23:40   32.3    39    9.2   144     11.6   811.1    0.00       1    44.1
 107   23:50   32.3    39    8.2   139     10.9   811.0    0.00       0    43.8
 108    0:00   31.9    40    8.3   147     10.4   811.1    0.00       1    43.4
 108    0:10   31.5    42    9.6   148     13.7   811.0    0.00       1    43.1
 108    0:20   33.0    39   11.8   149     15.1   810.9    0.00       1    42.7
 108    0:30   31.0    43   10.3   144     12.7   810.8    0.00       1    42.5
 108    0:40   29.9    46    9.2   146     11.3   810.7    0.00       1    42.2
 108    0:50   29.4    46   10.5   145     13.1   810.7    0.00       1    41.8
 108    1:00   29.3    46    8.5   145     11.0   810.7    0.00       1    41.5
 108    1:10   29.4    46    9.8   153     12.1   810.6    0.00       0    41.2
 108    1:20   28.4    48   10.8   151     12.6   810.6    0.00       0    40.8
 108    1:30   28.6    46   12.2   146     14.7   810.5    0.00       0    40.5
 108    1:40   28.5    46   12.6   145     14.9   810.5    0.00       0    40.2
 108    1:50   28.8    44   11.1   145     13.7   810.5    0.00       0    39.9
 108    2:00   29.6    44   11.9   137     14.8   810.5    0.00       0    39.7
 108    2:10   31.0    42   10.5   146     13.3   810.6    0.00       0    39.6
 108    2:20   29.6    44   10.6   148     13.0   810.6    0.00       0    39.4
 108    2:30   29.1    46   12.0   147     14.8   810.6    0.00       0    39.3
 108    2:40   28.8    46   10.0   144     13.0   810.6    0.00       0    39.0
 108    2:50   27.7    48   10.3   146     12.4   810.5    0.00       0    38.8
 108    3:00   27.0    50   10.0   147     12.1   810.5    0.00       0    38.6
 108    3:10   27.0    51   10.3   149     13.4   810.5    0.00       0    38.3
 108    3:20   27.1    52   10.2   149     12.8   810.4    0.00       0    38.1
 108    3:30   27.3    50    9.9   151     12.8   810.4    0.00       0    37.9
 108    3:40   25.9    52   10.1   142     13.2   810.4    0.00       0    37.7
 108    3:50   26.5    52   10.3   147     13.0   810.4    0.00       0    37.4
 108    4:00   27.2    51   11.3   147     14.0   810.4    0.00       0    37.2
 108    4:10   27.2    51   11.7   149     14.2   810.4    0.00       0    37.1
 108    4:20   26.4    53   11.8   153     15.4   810.5    0.00       0    36.9
 108    4:30   27.1    50   10.9   144     17.3   810.5    0.00       0    36.7
 108    4:40   27.3    49   10.8   142     13.6   810.6    0.00       1    36.5
 108    4:50   26.2    51   10.5   143     13.5   810.6    0.00       3    36.4
 108    5:00   25.7    53   12.1   149     15.1   810.6    0.00       7    36.3
 108    5:10   25.1    54   13.1   148     17.6   810.7    0.00       7    36.1
 108    5:20   24.9    56   13.9   146     16.9   810.8    0.00      11    35.9
 108    5:30   25.5    54   12.6   140     15.3   810.8    0.00      20    35.7
 108    5:40   26.5    53   11.4   150     13.2   810.9    0.00      56    35.6
 108    5:50   26.9    53   11.0   153     14.4   811.0    0.00     141    35.6
 108    6:00   28.8    50   10.0   153     12.3   811.0    0.00     178    35.8
 108    6:10   30.6    48    9.4   156     12.5   811.0    0.00     216    36.0
 108    6:20   32.9    45    8.8   156     11.2   811.1    0.00     255    36.3
 108    6:30   35.2    41    9.6   152     12.1   811.2    0.00     295    37.1
 108    6:40   37.1    39    8.3   156     12.3   811.2    0.00     335    38.3
 108    6:50   38.9    37    8.5   152     12.3   811.3    0.00     377    39.8
 108    7:00   41.0    34    7.6   144      9.3   811.3    0.00     419    41.1

Return to Ely, Nevada graphs page.


Western Regional Climate Center,wrcc@dri.edu